sensor_id;sensor_type;location;lat;lon;timestamp;temperature;humidity
75380;HTU21D;65641;44.714;37.756;2023-02-28T00:00:44;11.66;81.33
75380;HTU21D;65641;44.714;37.756;2023-02-28T00:01:48;11.66;81.32
75380;HTU21D;65641;44.714;37.756;2023-02-28T00:02:53;11.63;81.33
75380;HTU21D;65641;44.714;37.756;2023-02-28T00:03:57;11.62;81.13
75380;HTU21D;65641;44.714;37.756;2023-02-28T00:05:03;11.60;81.27
75380;HTU21D;65641;44.714;37.756;2023-02-28T00:06:07;11.58;81.36
75380;HTU21D;65641;44.714;37.756;2023-02-28T00:07:11;11.58;81.34
75380;HTU21D;65641;44.714;37.756;2023-02-28T00:08:16;11.57;81.49
75380;HTU21D;65641;44.714;37.756;2023-02-28T00:09:21;11.55;81.57
75380;HTU21D;65641;44.714;37.756;2023-02-28T00:10:28;11.53;81.59
75380;HTU21D;65641;44.714;37.756;2023-02-28T00:11:32;11.52;81.59
75380;HTU21D;65641;44.714;37.756;2023-02-28T00:12:35;11.49;81.59
75380;HTU21D;65641;44.714;37.756;2023-02-28T00:13:42;11.47;81.70
75380;HTU21D;65641;44.714;37.756;2023-02-28T00:14:48;11.46;81.82
75380;HTU21D;65641;44.714;37.756;2023-02-28T00:16:04;11.45;81.79
75380;HTU21D;65641;44.714;37.756;2023-02-28T00:17:08;11.44;81.78
75380;HTU21D;65641;44.714;37.756;2023-02-28T00:18:11;11.41;81.85
75380;HTU21D;65641;44.714;37.756;2023-02-28T00:19:17;11.40;81.92
75380;HTU21D;65641;44.714;37.756;2023-02-28T00:20:21;11.38;81.99
75380;HTU21D;65641;44.714;37.756;2023-02-28T00:21:25;11.37;81.96
75380;HTU21D;65641;44.714;37.756;2023-02-28T00:22:32;11.36;81.94
75380;HTU21D;65641;44.714;37.756;2023-02-28T00:23:35;11.36;82.01
75380;HTU21D;65641;44.714;37.756;2023-02-28T00:24:38;11.33;82.05
75380;HTU21D;65641;44.714;37.756;2023-02-28T00:25:41;11.31;82.12
75380;HTU21D;65641;44.714;37.756;2023-02-28T00:26:46;11.30;82.13
75380;HTU21D;65641;44.714;37.756;2023-02-28T00:27:51;11.29;82.13
75380;HTU21D;65641;44.714;37.756;2023-02-28T00:28:55;11.30;82.18
75380;HTU21D;65641;44.714;37.756;2023-02-28T00:30:01;11.28;82.20
75380;HTU21D;65641;44.714;37.756;2023-02-28T00:31:06;11.28;82.16
75380;HTU21D;65641;44.714;37.756;2023-02-28T00:32:11;11.27;82.20
75380;HTU21D;65641;44.714;37.756;2023-02-28T00:33:14;11.27;82.26
75380;HTU21D;65641;44.714;37.756;2023-02-28T00:34:17;11.28;82.16
75380;HTU21D;65641;44.714;37.756;2023-02-28T00:35:22;11.25;82.10
75380;HTU21D;65641;44.714;37.756;2023-02-28T00:36:25;11.26;82.25
75380;HTU21D;65641;44.714;37.756;2023-02-28T00:37:28;11.26;82.06
75380;HTU21D;65641;44.714;37.756;2023-02-28T00:38:32;11.26;82.11
75380;HTU21D;65641;44.714;37.756;2023-02-28T00:39:36;11.26;82.17
75380;HTU21D;65641;44.714;37.756;2023-02-28T00:40:41;11.25;82.17
75380;HTU21D;65641;44.714;37.756;2023-02-28T00:41:46;11.25;82.08
75380;HTU21D;65641;44.714;37.756;2023-02-28T00:42:49;11.26;82.21
75380;HTU21D;65641;44.714;37.756;2023-02-28T00:43:52;11.27;82.24
75380;HTU21D;65641;44.714;37.756;2023-02-28T00:44:56;11.27;82.13
75380;HTU21D;65641;44.714;37.756;2023-02-28T00:45:59;11.26;82.07
75380;HTU21D;65641;44.714;37.756;2023-02-28T00:47:05;11.27;82.11
75380;HTU21D;65641;44.714;37.756;2023-02-28T00:48:08;11.27;82.15
75380;HTU21D;65641;44.714;37.756;2023-02-28T00:49:14;11.26;82.13
75380;HTU21D;65641;44.714;37.756;2023-02-28T00:50:20;11.27;82.02
75380;HTU21D;65641;44.714;37.756;2023-02-28T00:51:23;11.28;81.96
75380;HTU21D;65641;44.714;37.756;2023-02-28T00:52:27;11.26;82.11
75380;HTU21D;65641;44.714;37.756;2023-02-28T00:53:31;11.27;82.07
75380;HTU21D;65641;44.714;37.756;2023-02-28T00:54:36;11.26;82.10
75380;HTU21D;65641;44.714;37.756;2023-02-28T00:55:39;11.27;82.19
75380;HTU21D;65641;44.714;37.756;2023-02-28T00:56:45;11.26;82.13
75380;HTU21D;65641;44.714;37.756;2023-02-28T00:57:49;11.27;82.13
75380;HTU21D;65641;44.714;37.756;2023-02-28T00:58:57;11.26;82.02
75380;HTU21D;65641;44.714;37.756;2023-02-28T01:00:00;11.27;82.20
75380;HTU21D;65641;44.714;37.756;2023-02-28T01:01:06;11.27;82.13
75380;HTU21D;65641;44.714;37.756;2023-02-28T01:02:09;11.27;82.14
75380;HTU21D;65641;44.714;37.756;2023-02-28T01:03:16;11.27;82.07
75380;HTU21D;65641;44.714;37.756;2023-02-28T01:04:19;11.27;82.24
75380;HTU21D;65641;44.714;37.756;2023-02-28T01:05:23;11.26;82.12
75380;HTU21D;65641;44.714;37.756;2023-02-28T01:06:28;11.27;82.11
75380;HTU21D;65641;44.714;37.756;2023-02-28T01:07:31;11.26;82.10
75380;HTU21D;65641;44.714;37.756;2023-02-28T01:08:36;11.26;82.11
75380;HTU21D;65641;44.714;37.756;2023-02-28T01:09:41;11.26;82.06
75380;HTU21D;65641;44.714;37.756;2023-02-28T01:10:44;11.25;82.11
75380;HTU21D;65641;44.714;37.756;2023-02-28T01:11:47;11.25;82.01
75380;HTU21D;65641;44.714;37.756;2023-02-28T01:12:51;11.26;82.07
75380;HTU21D;65641;44.714;37.756;2023-02-28T01:13:54;11.26;82.03
75380;HTU21D;65641;44.714;37.756;2023-02-28T01:14:58;11.25;82.05
75380;HTU21D;65641;44.714;37.756;2023-02-28T01:16:02;11.25;81.98
75380;HTU21D;65641;44.714;37.756;2023-02-28T01:17:09;11.25;82.00
75380;HTU21D;65641;44.714;37.756;2023-02-28T01:18:14;11.24;81.98
75380;HTU21D;65641;44.714;37.756;2023-02-28T01:19:19;11.24;81.97
75380;HTU21D;65641;44.714;37.756;2023-02-28T01:20:23;11.22;82.02
75380;HTU21D;65641;44.714;37.756;2023-02-28T01:21:26;11.23;81.94
75380;HTU21D;65641;44.714;37.756;2023-02-28T01:22:30;11.22;81.96
75380;HTU21D;65641;44.714;37.756;2023-02-28T01:23:33;11.20;82.04
75380;HTU21D;65641;44.714;37.756;2023-02-28T01:24:39;11.20;82.10
75380;HTU21D;65641;44.714;37.756;2023-02-28T01:25:42;11.20;81.99
75380;HTU21D;65641;44.714;37.756;2023-02-28T01:26:45;11.20;81.98
75380;HTU21D;65641;44.714;37.756;2023-02-28T01:27:50;11.18;82.04
75380;HTU21D;65641;44.714;37.756;2023-02-28T01:28:54;11.18;81.96
75380;HTU21D;65641;44.714;37.756;2023-02-28T01:29:57;11.16;81.97
75380;HTU21D;65641;44.714;37.756;2023-02-28T01:31:01;11.16;81.98
75380;HTU21D;65641;44.714;37.756;2023-02-28T01:32:04;11.16;81.98
75380;HTU21D;65641;44.714;37.756;2023-02-28T01:33:10;11.15;81.94
75380;HTU21D;65641;44.714;37.756;2023-02-28T01:34:15;11.14;82.07
75380;HTU21D;65641;44.714;37.756;2023-02-28T01:35:19;11.14;81.97
75380;HTU21D;65641;44.714;37.756;2023-02-28T01:36:26;11.13;82.09
75380;HTU21D;65641;44.714;37.756;2023-02-28T01:37:30;11.11;82.11
75380;HTU21D;65641;44.714;37.756;2023-02-28T01:38:34;11.11;82.11
75380;HTU21D;65641;44.714;37.756;2023-02-28T01:39:39;11.10;82.06
75380;HTU21D;65641;44.714;37.756;2023-02-28T01:40:44;11.10;82.14
75380;HTU21D;65641;44.714;37.756;2023-02-28T01:41:47;11.09;82.23
75380;HTU21D;65641;44.714;37.756;2023-02-28T01:42:53;11.09;82.13
75380;HTU21D;65641;44.714;37.756;2023-02-28T01:43:59;11.07;82.16
75380;HTU21D;65641;44.714;37.756;2023-02-28T01:45:25;11.05;82.21
75380;HTU21D;65641;44.714;37.756;2023-02-28T01:46:32;11.03;82.28
75380;HTU21D;65641;44.714;37.756;2023-02-28T01:47:41;11.04;82.20
75380;HTU21D;65641;44.714;37.756;2023-02-28T01:48:55;11.03;82.28
75380;HTU21D;65641;44.714;37.756;2023-02-28T01:50:04;11.02;82.38
75380;HTU21D;65641;44.714;37.756;2023-02-28T01:51:13;11.02;82.20
75380;HTU21D;65641;44.714;37.756;2023-02-28T01:52:18;11.01;82.37
75380;HTU21D;65641;44.714;37.756;2023-02-28T01:53:42;11.00;82.29
75380;HTU21D;65641;44.714;37.756;2023-02-28T01:54:53;10.99;82.36
75380;HTU21D;65641;44.714;37.756;2023-02-28T01:55:59;10.98;82.39
75380;HTU21D;65641;44.714;37.756;2023-02-28T01:57:12;10.97;82.33
75380;HTU21D;65641;44.714;37.756;2023-02-28T01:58:17;10.96;82.48
75380;HTU21D;65641;44.714;37.756;2023-02-28T01:59:48;10.96;82.59
75380;HTU21D;65641;44.714;37.756;2023-02-28T02:00:55;10.96;82.50
75380;HTU21D;65641;44.714;37.756;2023-02-28T02:02:02;10.95;82.53
75380;HTU21D;65641;44.714;37.756;2023-02-28T02:03:09;10.94;82.48
75380;HTU21D;65641;44.714;37.756;2023-02-28T02:04:17;10.95;82.46
75380;HTU21D;65641;44.714;37.756;2023-02-28T02:05:26;10.94;82.49
75380;HTU21D;65641;44.714;37.756;2023-02-28T02:06:39;10.94;82.58
75380;HTU21D;65641;44.714;37.756;2023-02-28T02:07:47;10.93;82.49
75380;HTU21D;65641;44.714;37.756;2023-02-28T02:08:53;10.92;82.65
75380;HTU21D;65641;44.714;37.756;2023-02-28T02:10:13;10.92;82.57
75380;HTU21D;65641;44.714;37.756;2023-02-28T02:11:22;10.92;82.61
75380;HTU21D;65641;44.714;37.756;2023-02-28T02:12:44;10.92;82.62
75380;HTU21D;65641;44.714;37.756;2023-02-28T02:15:19;10.90;82.62
75380;HTU21D;65641;44.714;37.756;2023-02-28T02:18:44;10.92;82.55
75380;HTU21D;65641;44.714;37.756;2023-02-28T02:21:39;10.90;82.59
75380;HTU21D;65641;44.714;37.756;2023-02-28T02:25:47;10.90;82.56
75380;HTU21D;65641;44.714;37.756;2023-02-28T02:27:18;10.89;82.57
75380;HTU21D;65641;44.714;37.756;2023-02-28T02:36:01;10.89;82.37
75380;HTU21D;65641;44.714;37.756;2023-02-28T02:37:24;10.88;82.50
75380;HTU21D;65641;44.714;37.756;2023-02-28T02:38:39;10.89;82.52
75380;HTU21D;65641;44.714;37.756;2023-02-28T02:40:11;10.88;82.52
75380;HTU21D;65641;44.714;37.756;2023-02-28T02:41:48;10.88;82.47
75380;HTU21D;65641;44.714;37.756;2023-02-28T02:43:11;10.89;82.56
75380;HTU21D;65641;44.714;37.756;2023-02-28T02:44:36;10.88;82.46
75380;HTU21D;65641;44.714;37.756;2023-02-28T02:46:04;10.88;82.45
75380;HTU21D;65641;44.714;37.756;2023-02-28T02:47:12;10.89;82.44
75380;HTU21D;65641;44.714;37.756;2023-02-28T02:48:21;10.89;82.43
75380;HTU21D;65641;44.714;37.756;2023-02-28T02:49:31;10.89;82.41
75380;HTU21D;65641;44.714;37.756;2023-02-28T02:50:46;10.88;82.39
75380;HTU21D;65641;44.714;37.756;2023-02-28T02:51:54;10.88;82.48
75380;HTU21D;65641;44.714;37.756;2023-02-28T02:53:02;10.88;82.51
75380;HTU21D;65641;44.714;37.756;2023-02-28T02:54:14;10.86;82.45
75380;HTU21D;65641;44.714;37.756;2023-02-28T02:55:20;10.87;82.46
75380;HTU21D;65641;44.714;37.756;2023-02-28T02:56:28;10.87;82.55
75380;HTU21D;65641;44.714;37.756;2023-02-28T02:57:40;10.87;82.42
75380;HTU21D;65641;44.714;37.756;2023-02-28T02:58:50;10.87;82.46
75380;HTU21D;65641;44.714;37.756;2023-02-28T02:59:56;10.88;82.41
75380;HTU21D;65641;44.714;37.756;2023-02-28T03:01:02;10.88;82.32
75380;HTU21D;65641;44.714;37.756;2023-02-28T03:02:09;10.88;82.35
75380;HTU21D;65641;44.714;37.756;2023-02-28T03:03:16;10.87;82.36
75380;HTU21D;65641;44.714;37.756;2023-02-28T03:04:32;10.88;82.42
75380;HTU21D;65641;44.714;37.756;2023-02-28T03:05:57;10.89;82.36
75380;HTU21D;65641;44.714;37.756;2023-02-28T03:07:02;10.90;82.39
75380;HTU21D;65641;44.714;37.756;2023-02-28T03:08:27;10.89;82.42
75380;HTU21D;65641;44.714;37.756;2023-02-28T03:09:33;10.88;82.48
75380;HTU21D;65641;44.714;37.756;2023-02-28T03:10:46;10.90;82.47
75380;HTU21D;65641;44.714;37.756;2023-02-28T03:11:55;10.90;82.47
75380;HTU21D;65641;44.714;37.756;2023-02-28T03:19:03;10.92;82.33
75380;HTU21D;65641;44.714;37.756;2023-02-28T03:21:06;10.93;82.39
75380;HTU21D;65641;44.714;37.756;2023-02-28T03:22:14;10.94;82.42
75380;HTU21D;65641;44.714;37.756;2023-02-28T03:26:06;10.93;82.27
75380;HTU21D;65641;44.714;37.756;2023-02-28T03:27:26;10.93;82.26
75380;HTU21D;65641;44.714;37.756;2023-02-28T03:32:26;10.92;82.27
75380;HTU21D;65641;44.714;37.756;2023-02-28T03:33:39;10.92;82.33
75380;HTU21D;65641;44.714;37.756;2023-02-28T03:34:51;10.92;82.26
75380;HTU21D;65641;44.714;37.756;2023-02-28T03:36:13;10.92;82.27
75380;HTU21D;65641;44.714;37.756;2023-02-28T03:37:21;10.90;82.27
75380;HTU21D;65641;44.714;37.756;2023-02-28T03:39:55;10.89;82.25
75380;HTU21D;65641;44.714;37.756;2023-02-28T03:41:07;10.89;82.29
75380;HTU21D;65641;44.714;37.756;2023-02-28T03:42:23;10.89;82.38
75380;HTU21D;65641;44.714;37.756;2023-02-28T03:43:36;10.90;82.44
75380;HTU21D;65641;44.714;37.756;2023-02-28T03:44:47;10.88;82.55
75380;HTU21D;65641;44.714;37.756;2023-02-28T03:45:52;10.89;82.49
75380;HTU21D;65641;44.714;37.756;2023-02-28T03:47:14;10.89;82.47
75380;HTU21D;65641;44.714;37.756;2023-02-28T03:48:32;10.90;82.37
75380;HTU21D;65641;44.714;37.756;2023-02-28T03:49:48;10.90;82.40
75380;HTU21D;65641;44.714;37.756;2023-02-28T03:50:55;10.89;82.50
75380;HTU21D;65641;44.714;37.756;2023-02-28T03:52:06;10.89;82.50
75380;HTU21D;65641;44.714;37.756;2023-02-28T03:54:27;10.90;82.53
75380;HTU21D;65641;44.714;37.756;2023-02-28T03:55:40;10.89;82.41
75380;HTU21D;65641;44.714;37.756;2023-02-28T03:56:51;10.89;82.47
75380;HTU21D;65641;44.714;37.756;2023-02-28T03:59:42;10.90;82.55
75380;HTU21D;65641;44.714;37.756;2023-02-28T04:00:57;10.92;82.40
75380;HTU21D;65641;44.714;37.756;2023-02-28T04:02:02;10.92;82.46
75380;HTU21D;65641;44.714;37.756;2023-02-28T04:03:07;10.93;82.41
75380;HTU21D;65641;44.714;37.756;2023-02-28T04:04:11;10.93;82.39
75380;HTU21D;65641;44.714;37.756;2023-02-28T04:05:16;10.93;82.44
75380;HTU21D;65641;44.714;37.756;2023-02-28T04:06:21;10.94;82.43
75380;HTU21D;65641;44.714;37.756;2023-02-28T04:07:29;10.95;82.43
75380;HTU21D;65641;44.714;37.756;2023-02-28T04:08:32;10.95;82.33
75380;HTU21D;65641;44.714;37.756;2023-02-28T04:09:37;10.95;82.37
75380;HTU21D;65641;44.714;37.756;2023-02-28T04:10:45;10.95;82.34
75380;HTU21D;65641;44.714;37.756;2023-02-28T04:11:52;10.97;82.42
75380;HTU21D;65641;44.714;37.756;2023-02-28T04:12:56;10.97;82.33
75380;HTU21D;65641;44.714;37.756;2023-02-28T04:13:59;10.97;82.23
75380;HTU21D;65641;44.714;37.756;2023-02-28T04:15:02;10.98;82.25
75380;HTU21D;65641;44.714;37.756;2023-02-28T04:16:07;10.98;82.29
75380;HTU21D;65641;44.714;37.756;2023-02-28T04:17:23;11.00;82.27
75380;HTU21D;65641;44.714;37.756;2023-02-28T04:18:26;10.99;82.30
75380;HTU21D;65641;44.714;37.756;2023-02-28T04:19:29;11.00;82.15
75380;HTU21D;65641;44.714;37.756;2023-02-28T04:20:32;11.01;82.17
75380;HTU21D;65641;44.714;37.756;2023-02-28T04:21:41;11.01;82.13
75380;HTU21D;65641;44.714;37.756;2023-02-28T04:22:46;11.01;82.09
75380;HTU21D;65641;44.714;37.756;2023-02-28T04:23:51;11.03;82.10
75380;HTU21D;65641;44.714;37.756;2023-02-28T04:24:54;11.04;82.17
75380;HTU21D;65641;44.714;37.756;2023-02-28T04:25:57;11.05;82.05
75380;HTU21D;65641;44.714;37.756;2023-02-28T04:27:00;11.07;81.95
75380;HTU21D;65641;44.714;37.756;2023-02-28T04:28:06;11.09;81.91
75380;HTU21D;65641;44.714;37.756;2023-02-28T04:29:12;11.11;81.78
75380;HTU21D;65641;44.714;37.756;2023-02-28T04:30:16;11.12;81.65
75380;HTU21D;65641;44.714;37.756;2023-02-28T04:31:19;11.13;81.64
75380;HTU21D;65641;44.714;37.756;2023-02-28T04:32:23;11.15;81.58
75380;HTU21D;65641;44.714;37.756;2023-02-28T04:33:28;11.16;81.55
75380;HTU21D;65641;44.714;37.756;2023-02-28T04:34:32;11.17;81.58
75380;HTU21D;65641;44.714;37.756;2023-02-28T04:35:37;11.18;81.53
75380;HTU21D;65641;44.714;37.756;2023-02-28T04:36:42;11.20;81.43
75380;HTU21D;65641;44.714;37.756;2023-02-28T04:37:46;11.23;81.40
75380;HTU21D;65641;44.714;37.756;2023-02-28T04:38:51;11.25;81.33
75380;HTU21D;65641;44.714;37.756;2023-02-28T04:39:54;11.27;81.34
75380;HTU21D;65641;44.714;37.756;2023-02-28T04:40:59;11.28;81.27
75380;HTU21D;65641;44.714;37.756;2023-02-28T04:42:03;11.31;81.20
75380;HTU21D;65641;44.714;37.756;2023-02-28T04:43:08;11.32;81.17
75380;HTU21D;65641;44.714;37.756;2023-02-28T04:44:11;11.34;81.15
75380;HTU21D;65641;44.714;37.756;2023-02-28T04:45:14;11.36;81.08
75380;HTU21D;65641;44.714;37.756;2023-02-28T04:46:17;11.37;81.02
75380;HTU21D;65641;44.714;37.756;2023-02-28T04:47:21;11.39;81.00
75380;HTU21D;65641;44.714;37.756;2023-02-28T04:48:28;11.40;81.04
75380;HTU21D;65641;44.714;37.756;2023-02-28T04:49:34;11.42;80.99
75380;HTU21D;65641;44.714;37.756;2023-02-28T04:50:37;11.44;80.93
75380;HTU21D;65641;44.714;37.756;2023-02-28T04:51:40;11.45;80.94
75380;HTU21D;65641;44.714;37.756;2023-02-28T04:52:44;11.48;80.85
75380;HTU21D;65641;44.714;37.756;2023-02-28T04:53:50;11.49;80.71
75380;HTU21D;65641;44.714;37.756;2023-02-28T04:54:55;11.52;80.72
75380;HTU21D;65641;44.714;37.756;2023-02-28T04:56:05;11.56;80.55
75380;HTU21D;65641;44.714;37.756;2023-02-28T04:57:08;11.58;80.55
75380;HTU21D;65641;44.714;37.756;2023-02-28T04:58:14;11.60;80.45
75380;HTU21D;65641;44.714;37.756;2023-02-28T04:59:18;11.63;80.37
75380;HTU21D;65641;44.714;37.756;2023-02-28T05:00:22;11.67;80.32
75380;HTU21D;65641;44.714;37.756;2023-02-28T05:01:32;11.69;80.29
75380;HTU21D;65641;44.714;37.756;2023-02-28T05:02:38;11.72;80.11
75380;HTU21D;65641;44.714;37.756;2023-02-28T05:03:43;11.75;80.03
75380;HTU21D;65641;44.714;37.756;2023-02-28T05:04:46;11.78;80.02
75380;HTU21D;65641;44.714;37.756;2023-02-28T05:05:49;11.79;79.90
75380;HTU21D;65641;44.714;37.756;2023-02-28T05:06:54;11.85;79.82
75380;HTU21D;65641;44.714;37.756;2023-02-28T05:07:59;11.87;79.82
75380;HTU21D;65641;44.714;37.756;2023-02-28T05:09:02;11.89;79.61
75380;HTU21D;65641;44.714;37.756;2023-02-28T05:10:16;11.93;79.54
75380;HTU21D;65641;44.714;37.756;2023-02-28T05:11:25;11.96;79.45
75380;HTU21D;65641;44.714;37.756;2023-02-28T05:12:29;11.99;79.34
75380;HTU21D;65641;44.714;37.756;2023-02-28T05:13:34;12.02;79.27
75380;HTU21D;65641;44.714;37.756;2023-02-28T05:14:42;12.03;79.08
75380;HTU21D;65641;44.714;37.756;2023-02-28T05:15:47;12.06;79.09
75380;HTU21D;65641;44.714;37.756;2023-02-28T05:16:50;12.08;79.08
75380;HTU21D;65641;44.714;37.756;2023-02-28T05:17:54;12.10;78.94
75380;HTU21D;65641;44.714;37.756;2023-02-28T05:19:01;12.11;78.85
75380;HTU21D;65641;44.714;37.756;2023-02-28T05:20:05;12.13;78.88
75380;HTU21D;65641;44.714;37.756;2023-02-28T05:21:40;12.17;78.75
75380;HTU21D;65641;44.714;37.756;2023-02-28T05:22:45;12.20;78.63
75380;HTU21D;65641;44.714;37.756;2023-02-28T05:23:49;12.23;78.53
75380;HTU21D;65641;44.714;37.756;2023-02-28T05:24:52;12.23;78.54
75380;HTU21D;65641;44.714;37.756;2023-02-28T05:25:56;12.28;78.43
75380;HTU21D;65641;44.714;37.756;2023-02-28T05:26:59;12.29;78.38
75380;HTU21D;65641;44.714;37.756;2023-02-28T05:28:03;12.32;78.32
75380;HTU21D;65641;44.714;37.756;2023-02-28T05:29:06;12.35;78.27
75380;HTU21D;65641;44.714;37.756;2023-02-28T05:30:09;12.37;78.17
75380;HTU21D;65641;44.714;37.756;2023-02-28T05:31:13;12.40;78.08
75380;HTU21D;65641;44.714;37.756;2023-02-28T05:32:16;12.43;78.05
75380;HTU21D;65641;44.714;37.756;2023-02-28T05:33:20;12.44;77.97
75380;HTU21D;65641;44.714;37.756;2023-02-28T05:34:24;12.47;77.99
75380;HTU21D;65641;44.714;37.756;2023-02-28T05:35:27;12.49;77.95
75380;HTU21D;65641;44.714;37.756;2023-02-28T05:36:31;12.53;77.92
75380;HTU21D;65641;44.714;37.756;2023-02-28T05:37:34;12.56;77.81
75380;HTU21D;65641;44.714;37.756;2023-02-28T05:38:37;12.59;77.69
75380;HTU21D;65641;44.714;37.756;2023-02-28T05:39:42;12.63;77.67
75380;HTU21D;65641;44.714;37.756;2023-02-28T05:40:45;12.66;77.53
75380;HTU21D;65641;44.714;37.756;2023-02-28T05:41:48;12.71;77.53
75380;HTU21D;65641;44.714;37.756;2023-02-28T05:42:53;12.74;77.40
75380;HTU21D;65641;44.714;37.756;2023-02-28T05:43:58;12.76;77.24
75380;HTU21D;65641;44.714;37.756;2023-02-28T05:45:05;12.80;77.22
75380;HTU21D;65641;44.714;37.756;2023-02-28T05:46:11;12.84;77.22
75380;HTU21D;65641;44.714;37.756;2023-02-28T05:47:15;12.87;77.20
75380;HTU21D;65641;44.714;37.756;2023-02-28T05:48:20;12.91;77.02
75380;HTU21D;65641;44.714;37.756;2023-02-28T05:49:24;12.94;76.95
75380;HTU21D;65641;44.714;37.756;2023-02-28T05:50:27;12.97;76.86
75380;HTU21D;65641;44.714;37.756;2023-02-28T05:51:31;13.01;76.73
75380;HTU21D;65641;44.714;37.756;2023-02-28T05:52:34;13.05;76.62
75380;HTU21D;65641;44.714;37.756;2023-02-28T05:53:40;13.08;76.44
75380;HTU21D;65641;44.714;37.756;2023-02-28T05:54:43;13.11;76.45
75380;HTU21D;65641;44.714;37.756;2023-02-28T05:55:46;13.15;76.27
75380;HTU21D;65641;44.714;37.756;2023-02-28T05:56:49;13.19;76.26
75380;HTU21D;65641;44.714;37.756;2023-02-28T05:57:52;13.22;76.21
75380;HTU21D;65641;44.714;37.756;2023-02-28T05:58:55;13.25;76.09
75380;HTU21D;65641;44.714;37.756;2023-02-28T05:59:58;13.27;76.06
75380;HTU21D;65641;44.714;37.756;2023-02-28T06:01:20;13.34;76.00
75380;HTU21D;65641;44.714;37.756;2023-02-28T06:02:24;13.37;75.93
75380;HTU21D;65641;44.714;37.756;2023-02-28T06:03:28;13.41;75.83
75380;HTU21D;65641;44.714;37.756;2023-02-28T06:04:32;13.46;75.64
75380;HTU21D;65641;44.714;37.756;2023-02-28T06:05:35;13.51;75.60
75380;HTU21D;65641;44.714;37.756;2023-02-28T06:06:38;13.55;75.45
75380;HTU21D;65641;44.714;37.756;2023-02-28T06:07:42;13.58;75.41
75380;HTU21D;65641;44.714;37.756;2023-02-28T06:08:46;13.63;75.35
75380;HTU21D;65641;44.714;37.756;2023-02-28T06:09:49;13.66;75.25
75380;HTU21D;65641;44.714;37.756;2023-02-28T06:10:52;13.74;75.18
75380;HTU21D;65641;44.714;37.756;2023-02-28T06:11:58;13.77;75.05
75380;HTU21D;65641;44.714;37.756;2023-02-28T06:13:03;13.81;74.98
75380;HTU21D;65641;44.714;37.756;2023-02-28T06:14:07;13.84;74.94
75380;HTU21D;65641;44.714;37.756;2023-02-28T06:15:13;13.88;74.91
75380;HTU21D;65641;44.714;37.756;2023-02-28T06:16:16;13.92;74.81
75380;HTU21D;65641;44.714;37.756;2023-02-28T06:17:20;13.96;74.73
75380;HTU21D;65641;44.714;37.756;2023-02-28T06:18:23;13.99;74.58
75380;HTU21D;65641;44.714;37.756;2023-02-28T06:19:26;14.04;74.61
75380;HTU21D;65641;44.714;37.756;2023-02-28T06:20:30;14.06;74.49
75380;HTU21D;65641;44.714;37.756;2023-02-28T06:21:33;14.10;74.40
75380;HTU21D;65641;44.714;37.756;2023-02-28T06:22:36;14.14;74.38
75380;HTU21D;65641;44.714;37.756;2023-02-28T06:23:39;14.18;74.25
75380;HTU21D;65641;44.714;37.756;2023-02-28T06:24:42;14.21;74.22
75380;HTU21D;65641;44.714;37.756;2023-02-28T06:25:46;14.23;74.06
75380;HTU21D;65641;44.714;37.756;2023-02-28T06:26:50;14.27;73.99
75380;HTU21D;65641;44.714;37.756;2023-02-28T06:27:54;14.33;73.86
75380;HTU21D;65641;44.714;37.756;2023-02-28T06:28:57;14.36;73.76
75380;HTU21D;65641;44.714;37.756;2023-02-28T06:30:00;14.39;73.54
75380;HTU21D;65641;44.714;37.756;2023-02-28T06:31:12;14.42;73.46
75380;HTU21D;65641;44.714;37.756;2023-02-28T06:32:15;14.47;73.54
75380;HTU21D;65641;44.714;37.756;2023-02-28T06:33:18;14.49;73.35
75380;HTU21D;65641;44.714;37.756;2023-02-28T06:34:21;14.50;73.14
75380;HTU21D;65641;44.714;37.756;2023-02-28T06:35:24;14.52;73.35
75380;HTU21D;65641;44.714;37.756;2023-02-28T06:36:28;14.54;73.30
75380;HTU21D;65641;44.714;37.756;2023-02-28T06:37:32;14.57;73.31
75380;HTU21D;65641;44.714;37.756;2023-02-28T06:38:36;14.58;73.19
75380;HTU21D;65641;44.714;37.756;2023-02-28T06:39:39;14.59;73.17
75380;HTU21D;65641;44.714;37.756;2023-02-28T06:40:44;14.62;73.22
75380;HTU21D;65641;44.714;37.756;2023-02-28T06:41:47;14.63;73.18
75380;HTU21D;65641;44.714;37.756;2023-02-28T06:42:57;14.67;73.06
75380;HTU21D;65641;44.714;37.756;2023-02-28T06:44:00;14.68;73.09
75380;HTU21D;65641;44.714;37.756;2023-02-28T06:45:03;14.71;72.92
75380;HTU21D;65641;44.714;37.756;2023-02-28T06:46:13;14.74;72.87
75380;HTU21D;65641;44.714;37.756;2023-02-28T06:47:17;14.79;72.84
75380;HTU21D;65641;44.714;37.756;2023-02-28T06:48:20;14.83;72.85
75380;HTU21D;65641;44.714;37.756;2023-02-28T06:49:23;14.87;72.76
75380;HTU21D;65641;44.714;37.756;2023-02-28T06:50:26;14.89;72.65
75380;HTU21D;65641;44.714;37.756;2023-02-28T06:51:31;14.94;72.51
75380;HTU21D;65641;44.714;37.756;2023-02-28T06:52:34;14.98;72.54
75380;HTU21D;65641;44.714;37.756;2023-02-28T06:53:39;15.03;72.48
75380;HTU21D;65641;44.714;37.756;2023-02-28T06:54:42;15.08;72.36
75380;HTU21D;65641;44.714;37.756;2023-02-28T06:55:45;15.12;72.23
75380;HTU21D;65641;44.714;37.756;2023-02-28T06:56:48;15.17;72.28
75380;HTU21D;65641;44.714;37.756;2023-02-28T06:57:52;15.21;72.21
75380;HTU21D;65641;44.714;37.756;2023-02-28T06:58:55;15.26;72.13
75380;HTU21D;65641;44.714;37.756;2023-02-28T06:59:59;15.29;72.00
75380;HTU21D;65641;44.714;37.756;2023-02-28T07:01:03;15.31;71.82
75380;HTU21D;65641;44.714;37.756;2023-02-28T07:02:08;15.36;71.86
75380;HTU21D;65641;44.714;37.756;2023-02-28T07:03:12;15.41;71.70
75380;HTU21D;65641;44.714;37.756;2023-02-28T07:04:15;15.45;71.61
75380;HTU21D;65641;44.714;37.756;2023-02-28T07:05:18;15.47;71.64
75380;HTU21D;65641;44.714;37.756;2023-02-28T07:06:22;15.52;71.65
75380;HTU21D;65641;44.714;37.756;2023-02-28T07:07:25;15.57;71.51
75380;HTU21D;65641;44.714;37.756;2023-02-28T07:08:28;15.58;71.32
75380;HTU21D;65641;44.714;37.756;2023-02-28T07:09:31;15.63;71.27
75380;HTU21D;65641;44.714;37.756;2023-02-28T07:10:37;15.67;71.20
75380;HTU21D;65641;44.714;37.756;2023-02-28T07:11:40;15.71;71.33
75380;HTU21D;65641;44.714;37.756;2023-02-28T07:12:45;15.72;71.32
75380;HTU21D;65641;44.714;37.756;2023-02-28T07:13:49;15.73;71.15
75380;HTU21D;65641;44.714;37.756;2023-02-28T07:14:53;15.74;71.19
75380;HTU21D;65641;44.714;37.756;2023-02-28T07:16:00;15.78;71.13
75380;HTU21D;65641;44.714;37.756;2023-02-28T07:17:03;15.78;71.16
75380;HTU21D;65641;44.714;37.756;2023-02-28T07:18:06;15.84;70.93
75380;HTU21D;65641;44.714;37.756;2023-02-28T07:19:09;15.87;70.99
75380;HTU21D;65641;44.714;37.756;2023-02-28T07:20:12;15.90;70.84
75380;HTU21D;65641;44.714;37.756;2023-02-28T07:21:15;15.95;70.93